Time;durP1;ratioP1;P1;durP2;ratioP2;P2;SDS_P1;SDS_P2;PMS_P1;PMS_P2;Temp;Humidity;BMP_temperature;BMP_pressure;BME280_temperature;BME280_humidity;BME280_pressure;Samples;Min_cycle;Max_cycle;Signal;HPM_P1;HPM_P2
2022/11/25 00:00:31;;;;;;;;;;;;;;;17.97;60.15;100868.52;2218672;79;50793;-79
2022/11/25 00:03:33;;;;;;;;;;;;;;;17.95;60.11;100877.23;2218774;79;50851;-79
2022/11/25 00:06:35;;;;;;;;;;;;;;;17.96;60.08;100874.90;2241156;79;51529;-78
2022/11/25 00:09:37;;;;;;;;;;;;;;;17.94;60.10;100877.73;2241269;79;50754;-78
2022/11/25 00:12:39;;;;;;;;;;;;;;;17.92;60.08;100877.58;2193697;79;52448;-77
2022/11/25 00:15:40;;;;;;;;;;;;;;;17.91;60.19;100886.12;2240972;79;51566;-78
2022/11/25 00:18:45;;;;;;;;;;;;;;;17.91;60.22;100875.41;2232423;78;52327;-78
2022/11/25 00:21:47;;;;;;;;;;;;;;;17.90;60.17;100872.38;2234524;78;50338;-76
2022/11/25 00:24:48;;;;;;;;;;;;;;;17.89;60.21;100876.08;2209870;78;51128;-78
2022/11/25 00:27:51;;;;;;;;;;;;;;;17.88;60.23;100873.09;2233917;78;50723;-78
2022/11/25 00:30:53;;;;;;;;;;;;;;;17.86;60.31;100867.58;2266592;77;51606;-77
2022/11/25 00:33:55;;;;;;;;;;;;;;;17.87;60.20;100870.06;2233543;78;51650;-79
2022/11/25 00:36:56;;;;;;;;;;;;;;;17.87;60.28;100867.89;2265986;78;51688;-77
2022/11/25 00:39:58;;;;;;;;;;;;;;;17.84;60.31;100867.22;2233723;78;51515;-78
2022/11/25 00:46:19;;;;;;;;;;;;;;;17.87;60.23;100873.25;2234094;77;23507;-78
2022/11/25 00:49:20;;;;;;;;;;;;;;;17.84;60.37;100875.77;2203105;79;52400;-78
2022/11/25 00:52:22;;;;;;;;;;;;;;;17.83;60.36;100882.14;2198423;81;50692;-79
2022/11/25 00:55:24;;;;;;;;;;;;;;;17.84;60.34;100877.10;2197523;81;51531;-78
2022/11/25 00:58:27;;;;;;;;;;;;;;;17.83;60.37;100877.61;2176822;81;22332;-79
2022/11/25 01:01:29;;;;;;;;;;;;;;;17.82;60.35;100881.28;2175608;81;49937;-79
2022/11/25 01:04:30;;;;;;;;;;;;;;;17.81;60.42;100881.47;2197296;81;51654;-77
2022/11/25 01:07:32;;;;;;;;;;;;;;;17.80;60.41;100881.98;2175712;81;50741;-77
2022/11/25 01:10:34;;;;;;;;;;;;;;;17.82;60.43;100881.78;2202400;79;51540;-77
2022/11/25 01:13:35;;;;;;;;;;;;;;;17.82;60.40;100881.78;2217792;79;52383;-76
2022/11/25 01:16:37;;;;;;;;;;;;;;;17.79;60.48;100882.11;2219856;78;50638;-77
2022/11/25 01:19:39;;;;;;;;;;;;;;;17.79;60.49;100875.41;2243391;78;50286;-78
2022/11/25 01:22:40;;;;;;;;;;;;;;;17.79;60.48;100874.08;2240909;79;51548;-77
2022/11/25 01:25:42;;;;;;;;;;;;;;;17.78;60.46;100877.27;2218371;79;49573;-77
2022/11/25 01:28:44;;;;;;;;;;;;;;;17.79;60.42;100875.41;2193659;79;51798;-77
2022/11/25 01:31:45;;;;;;;;;;;;;;;17.78;60.46;100871.91;2240938;79;50437;-78
2022/11/25 01:34:47;;;;;;;;;;;;;;;17.76;60.51;100866.40;2240899;78;50303;-78
2022/11/25 01:37:48;;;;;;;;;;;;;;;17.75;60.56;100873.59;2218458;79;52564;-77
2022/11/25 01:40:50;;;;;;;;;;;;;;;17.75;60.50;100873.59;2218939;79;50334;-78
2022/11/25 01:44:08;;;;;;;;;;;;;;;17.76;60.45;100869.08;2240596;79;50428;-78
2022/11/25 01:47:11;;;;;;;;;;;;;;;17.75;60.48;100864.70;2249165;78;51622;-77
2022/11/25 01:50:13;;;;;;;;;;;;;;;17.75;60.48;100873.59;2216967;79;51316;-77
2022/11/25 01:53:17;;;;;;;;;;;;;;;17.73;60.51;100867.58;2218174;79;51770;-79
2022/11/25 01:56:19;;;;;;;;;;;;;;;17.77;60.37;100860.02;2240964;79;50801;-79
2022/11/25 01:59:20;;;;;;;;;;;;;;;17.78;60.32;100863.05;2240830;79;50327;-77
2022/11/25 02:02:22;;;;;;;;;;;;;;;17.74;60.51;100857.19;2218560;79;51189;-78
2022/11/25 02:05:28;;;;;;;;;;;;;;;17.72;60.52;100851.16;2240957;79;50657;-78
2022/11/25 02:08:30;;;;;;;;;;;;;;;17.70;60.54;100849.19;2241521;78;51444;-77
2022/11/25 02:11:31;;;;;;;;;;;;;;;17.69;60.62;100850.18;2240992;79;51571;-77
2022/11/25 02:14:33;;;;;;;;;;;;;;;17.69;60.56;100843.48;2218164;79;51697;-78
2022/11/25 02:17:34;;;;;;;;;;;;;;;17.68;60.55;100844.52;2249373;78;51535;-79
2022/11/25 02:20:36;;;;;;;;;;;;;;;17.70;60.49;100845.18;2240952;79;50748;-77
2022/11/25 02:23:57;;;;;;;;;;;;;;;17.68;60.49;100843.68;2218513;79;51563;-77
2022/11/25 02:26:59;;;;;;;;;;;;;;;17.67;60.52;100842.82;2219942;79;52442;-79
2022/11/25 02:30:01;;;;;;;;;;;;;;;17.68;60.48;100842.34;2242476;79;51729;-77
2022/11/25 02:33:02;;;;;;;;;;;;;;;17.66;60.55;100843.84;2241338;79;50397;-78
2022/11/25 02:36:08;;;;;;;;;;;;;;;17.66;60.43;100843.02;2218699;79;50177;-77
2022/11/25 02:39:10;;;;;;;;;;;;;;;17.65;60.48;100839.51;2241494;78;50723;-78
2022/11/25 02:42:12;;;;;;;;;;;;;;;17.63;60.54;100846.36;2243689;79;51646;-78
2022/11/25 02:45:13;;;;;;;;;;;;;;;17.63;60.50;100849.03;2241419;78;51511;-77
2022/11/25 02:48:15;;;;;;;;;;;;;;;17.63;60.47;100841.52;2246077;78;50246;-78
2022/11/25 02:51:17;;;;;;;;;;;;;;;17.62;60.41;100841.16;2181692;81;51755;-79
2022/11/25 02:54:18;;;;;;;;;;;;;;;17.64;60.33;100847.19;2206280;81;51690;-77
2022/11/25 02:57:20;;;;;;;;;;;;;;;17.62;60.44;100851.87;2181392;81;50837;-78
2022/11/25 03:00:21;;;;;;;;;;;;;;;17.64;60.50;100845.84;2202917;81;50226;-76
2022/11/25 03:03:23;;;;;;;;;;;;;;;17.62;60.60;100849.19;2156726;81;51054;-76
2022/11/25 03:06:25;;;;;;;;;;;;;;;17.62;60.71;100857.22;2202891;81;50289;-77
2022/11/25 03:09:26;;;;;;;;;;;;;;;17.61;60.76;100856.39;2180794;81;50313;-77
2022/11/25 03:12:28;;;;;;;;;;;;;;;17.61;60.73;100857.73;2202882;80;50299;-77
2022/11/25 03:15:30;;;;;;;;;;;;;;;17.60;60.71;100852.06;2181796;79;52498;-78
2022/11/25 03:18:31;;;;;;;;;;;;;;;17.60;60.70;100852.06;2249208;78;51507;-78
2022/11/25 03:21:33;;;;;;;;;;;;;;;17.60;60.64;100862.77;2241903;79;51476;-78
2022/11/25 03:24:34;;;;;;;;;;;;;;;17.60;60.58;100870.79;2218321;79;51699;-78
2022/11/25 03:27:36;;;;;;;;;;;;;;;17.61;60.65;100875.13;2218125;79;50140;-76
2022/11/25 03:30:38;;;;;;;;;;;;;;;17.59;60.74;100870.44;2218583;79;50310;-77
2022/11/25 03:33:39;;;;;;;;;;;;;;;17.60;60.71;100874.80;2240808;79;50420;-78
2022/11/25 03:36:41;;;;;;;;;;;;;;;17.60;60.70;100877.48;2218858;79;50776;-78
2022/11/25 03:39:42;;;;;;;;;;;;;;;17.59;60.70;100869.09;2218448;79;52542;-78
2022/11/25 03:42:44;;;;;;;;;;;;;;;17.59;60.74;100870.95;2240786;79;51419;-78
2022/11/25 03:45:47;;;;;;;;;;;;;;;17.57;60.86;100876.48;2240818;79;51392;-77
2022/11/25 03:48:49;;;;;;;;;;;;;;;17.58;60.82;100871.45;2249158;78;51545;-78
2022/11/25 03:51:51;;;;;;;;;;;;;;;17.58;60.73;100874.64;2193599;79;52391;-78
2022/11/25 03:54:52;;;;;;;;;;;;;;;17.59;60.65;100871.77;2218700;79;52372;-77
2022/11/25 03:57:54;;;;;;;;;;;;;;;17.56;60.62;100860.59;2241038;79;50861;-77
2022/11/25 04:00:57;;;;;;;;;;;;;;;17.57;60.56;100866.27;2218741;79;53789;-78
2022/11/25 04:03:59;;;;;;;;;;;;;;;17.58;60.57;100869.29;2216866;79;51866;-78
2022/11/25 04:07:00;;;;;;;;;;;;;;;17.60;60.55;100868.11;2241149;79;49971;-77
2022/11/25 04:10:02;;;;;;;;;;;;;;;17.59;60.73;100865.09;2240989;79;51379;-81
2022/11/25 04:13:04;;;;;;;;;;;;;;;17.59;60.70;100870.95;2241441;79;50639;-81
2022/11/25 04:16:05;;;;;;;;;;;;;;;17.60;60.65;100871.30;2220071;78;52428;-81
2022/11/25 04:19:07;;;;;;;;;;;;;;;17.59;60.76;100873.63;2207126;80;51491;-81
2022/11/25 04:22:08;;;;;;;;;;;;;;;17.57;60.69;100875.15;2203774;80;51240;-81
2022/11/25 04:25:10;;;;;;;;;;;;;;;17.59;60.72;100873.63;2181433;81;50787;-81
2022/11/25 04:28:11;;;;;;;;;;;;;;;17.56;60.76;100878.81;2203521;80;50779;-81
2022/11/25 04:31:13;;;;;;;;;;;;;;;17.58;60.74;100885.34;2203357;81;50400;-82
2022/11/25 04:34:15;;;;;;;;;;;;;;;17.57;60.77;100889.00;2203672;81;51949;-81
2022/11/25 04:37:16;;;;;;;;;;;;;;;17.57;60.77;100899.70;2203747;81;51475;-82
2022/11/25 04:40:18;;;;;;;;;;;;;;;17.57;60.74;100887.19;2182264;81;52325;-82
2022/11/25 04:43:20;;;;;;;;;;;;;;;17.56;60.71;100889.52;2203868;81;50796;-82
2022/11/25 04:46:22;;;;;;;;;;;;;;;17.56;60.76;100896.20;2218912;78;51572;-82
2022/11/25 04:49:23;;;;;;;;;;;;;;;17.56;60.76;100892.70;2246157;78;50721;-81
2022/11/25 04:52:25;;;;;;;;;;;;;;;17.56;60.75;100898.88;2241397;79;50452;-81
2022/11/25 04:55:27;;;;;;;;;;;;;;;17.54;60.76;100894.20;2218813;79;50733;-81
2022/11/25 05:01:48;;;;;;;;;;;;;;;17.52;60.76;100890.87;2241709;79;22563;-78
2022/11/25 05:04:50;;;;;;;;;;;;;;;17.52;60.67;100896.23;2218462;79;50978;-78
2022/11/25 05:07:51;;;;;;;;;;;;;;;17.47;61.30;100893.23;2218664;79;51489;-78
2022/11/25 05:10:53;;;;;;;;;;;;;;;17.44;61.20;100889.53;2218546;79;51469;-78
2022/11/25 05:13:54;;;;;;;;;;;;;;;17.44;61.21;100884.69;2219172;79;50345;-77
2022/11/25 05:16:56;;;;;;;;;;;;;;;17.41;61.32;100887.20;2194209;79;51349;-78
2022/11/25 05:19:58;;;;;;;;;;;;;;;17.41;61.36;100890.70;2205269;80;50435;-78
2022/11/25 05:22:59;;;;;;;;;;;;;;;17.41;61.37;100888.03;2178487;80;50725;-78
2022/11/25 05:26:01;;;;;;;;;;;;;;;17.41;61.32;100889.88;2178909;80;50690;-78
2022/11/25 05:29:03;;;;;;;;;;;;;;;17.41;61.35;100889.88;2206771;80;50217;-78
2022/11/25 05:32:05;;;;;;;;;;;;;;;17.39;61.38;100905.25;2205186;79;50501;-79
2022/11/25 05:35:06;;;;;;;;;;;;;;;17.38;61.42;100902.25;2205086;80;50497;-77
2022/11/25 05:38:08;;;;;;;;;;;;;;;17.43;61.53;100905.77;2178465;80;50106;-76
2022/11/25 05:41:10;;;;;;;;;;;;;;;17.43;61.26;100922.64;2206640;79;51214;-77
2022/11/25 05:44:11;;;;;;;;;;;;;;;17.41;61.08;100912.61;2178120;80;51449;-77
2022/11/25 05:47:13;;;;;;;;;;;;;;;17.38;61.51;100911.61;2235118;78;50795;-76
2022/11/25 05:50:15;;;;;;;;;;;;;;;17.40;61.78;100917.64;2218474;79;52434;-77
2022/11/25 05:53:16;;;;;;;;;;;;;;;17.39;61.78;100911.94;2219252;79;51836;-77
2022/11/25 05:56:18;;;;;;;;;;;;;;;17.41;61.61;100917.45;2241186;78;50720;-77
2022/11/25 05:59:19;;;;;;;;;;;;;;;17.38;61.69;100916.45;2218728;79;53697;-77
2022/11/25 06:02:21;;;;;;;;;;;;;;;17.36;61.65;100923.80;2241247;79;51424;-77
2022/11/25 06:05:23;;;;;;;;;;;;;;;17.37;61.55;100915.31;2218505;79;51068;-77
2022/11/25 06:08:24;;;;;;;;;;;;;;;17.36;61.44;100914.95;2241241;79;50797;-78
2022/11/25 06:11:26;;;;;;;;;;;;;;;17.37;61.33;100911.30;2219123;79;50599;-79
2022/11/25 06:14:28;;;;;;;;;;;;;;;17.41;61.18;100913.95;2218723;79;50553;-79
2022/11/25 06:17:32;;;;;;;;;;;;;;;17.46;61.12;100916.95;2190021;80;50187;-79
2022/11/25 06:20:33;;;;;;;;;;;;;;;17.51;61.01;100915.11;2188481;80;22047;-79
2022/11/25 06:23:34;;;;;;;;;;;;;;;17.60;60.82;100916.27;2210033;80;50812;-80
2022/11/25 06:26:36;;;;;;;;;;;;;;;17.67;60.62;100912.91;2210145;80;50826;-74
2022/11/25 06:29:37;;;;;;;;;;;;;;;17.72;60.47;100909.22;2211484;79;50316;-75
2022/11/25 06:32:39;;;;;;;;;;;;;;;17.75;60.45;100903.52;2209931;80;50762;-74
2022/11/25 06:35:40;;;;;;;;;;;;;;;17.75;60.45;100907.53;2206315;80;51825;-76
2022/11/25 06:38:47;;;;;;;;;;;;;;;17.81;60.37;100901.55;2204664;80;52223;-75
2022/11/25 06:41:48;;;;;;;;;;;;;;;17.81;60.26;100903.70;2180326;80;52498;-75
2022/11/25 06:44:50;;;;;;;;;;;;;;;17.86;60.09;100907.73;2204525;80;51528;-75
2022/11/25 06:47:52;;;;;;;;;;;;;;;17.84;60.11;100903.88;2250026;78;50312;-74
2022/11/25 06:50:58;;;;;;;;;;;;;;;17.81;60.23;100921.11;2218543;79;51555;-75
2022/11/25 06:54:00;;;;;;;;;;;;;;;17.81;60.24;100925.63;2239409;78;50377;-74
2022/11/25 06:57:01;;;;;;;;;;;;;;;17.82;60.22;100928.13;2240677;79;50417;-76
2022/11/25 07:00:03;;;;;;;;;;;;;;;17.90;60.23;100925.92;2217853;79;50084;-76
2022/11/25 07:03:05;;;;;;;;;;;;;;;17.91;60.32;100933.48;2239784;78;50265;-76
2022/11/25 07:06:07;;;;;;;;;;;;;;;17.89;60.38;100938.99;2194061;79;52259;-78
2022/11/25 07:09:08;;;;;;;;;;;;;;;17.93;60.23;100934.98;2241492;79;52640;-78
2022/11/25 07:12:11;;;;;;;;;;;;;;;17.95;60.11;100940.14;2241137;79;50642;-77
2022/11/25 07:15:12;;;;;;;;;;;;;;;17.93;60.11;100943.48;2240534;79;50685;-78
2022/11/25 07:18:14;;;;;;;;;;;;;;;17.93;60.01;100947.02;2218411;79;51459;-76
2022/11/25 07:21:17;;;;;;;;;;;;;;;17.87;60.15;100951.70;2241005;79;51487;-77
2022/11/25 07:24:18;;;;;;;;;;;;;;;17.83;60.40;100960.59;2241012;79;49993;-78
2022/11/25 07:27:20;;;;;;;;;;;;;;;17.79;60.52;100959.25;2242113;79;50348;-78
2022/11/25 07:30:21;;;;;;;;;;;;;;;17.75;60.65;100971.77;2243071;79;50697;-79
2022/11/25 07:33:23;;;;;;;;;;;;;;;17.79;60.55;100976.65;2241721;79;51546;-78
2022/11/25 07:36:24;;;;;;;;;;;;;;;17.85;60.41;100975.13;2218407;79;50721;-78
2022/11/25 07:39:26;;;;;;;;;;;;;;;17.90;60.24;100981.31;2240960;79;51438;-77
2022/11/25 07:42:28;;;;;;;;;;;;;;;17.93;60.10;100984.98;2218292;79;52554;-78
2022/11/25 07:45:29;;;;;;;;;;;;;;;17.93;60.06;100983.17;2218267;79;50679;-78
2022/11/25 07:48:31;;;;;;;;;;;;;;;17.95;59.94;100986.48;2249489;78;51597;-77
2022/11/25 07:51:33;;;;;;;;;;;;;;;17.98;59.85;100982.63;2210660;79;50775;-78
2022/11/25 07:54:35;;;;;;;;;;;;;;;17.97;59.77;100971.09;2203211;80;50199;-78
2022/11/25 07:57:37;;;;;;;;;;;;;;;18.00;59.67;100973.93;2199959;79;50279;-78
2022/11/25 08:00:38;;;;;;;;;;;;;;;17.93;59.89;100968.92;2198300;79;50291;-77
2022/11/25 08:03:40;;;;;;;;;;;;;;;17.73;60.55;100967.11;2197676;79;50801;-78
2022/11/25 08:06:42;;;;;;;;;;;;;;;17.61;60.98;100963.42;2197967;79;52349;-78
2022/11/25 08:09:44;;;;;;;;;;;;;;;17.58;61.18;100961.09;2197876;79;50734;-79
2022/11/25 08:12:45;;;;;;;;;;;;;;;17.61;61.26;100967.44;2195076;79;50656;-78
2022/11/25 08:15:47;;;;;;;;;;;;;;;17.69;61.20;100965.77;2210985;79;51533;-78
2022/11/25 08:18:49;;;;;;;;;;;;;;;17.74;61.07;100972.78;2228505;79;51433;-77
2022/11/25 08:21:50;;;;;;;;;;;;;;;17.78;60.96;100976.80;2194744;79;50892;-79
2022/11/25 08:24:52;;;;;;;;;;;;;;;17.82;60.91;100988.86;2241080;79;50671;-79
2022/11/25 08:27:53;;;;;;;;;;;;;;;17.80;60.92;100984.16;2211846;79;50438;-78
2022/11/25 08:30:56;;;;;;;;;;;;;;;17.78;60.99;100985.66;2221587;79;50693;-78
2022/11/25 08:33:58;;;;;;;;;;;;;;;17.74;61.10;100986.16;2216676;79;51885;-78
2022/11/25 08:37:00;;;;;;;;;;;;;;;17.69;61.23;100985.84;2219052;79;50734;-80
2022/11/25 08:40:02;;;;;;;;;;;;;;;17.64;61.37;100980.47;2232176;79;50790;-79
2022/11/25 08:43:03;;;;;;;;;;;;;;;17.64;61.34;100982.32;2204494;80;51672;-79
2022/11/25 08:46:09;;;;;;;;;;;;;;;17.61;61.36;100999.55;2222129;78;51226;-77
2022/11/25 08:49:10;;;;;;;;;;;;;;;17.67;61.37;101002.55;2218473;79;50461;-77
2022/11/25 08:52:12;;;;;;;;;;;;;;;17.68;61.27;100990.36;2241070;79;51479;-79
2022/11/25 08:55:13;;;;;;;;;;;;;;;17.67;61.29;100985.98;2241098;79;50317;-78
2022/11/25 08:58:15;;;;;;;;;;;;;;;17.72;61.21;100990.84;2218459;79;50216;-78
2022/11/25 09:01:17;;;;;;;;;;;;;;;17.77;60.90;100997.86;2240976;79;50472;-78
2022/11/25 09:04:19;;;;;;;;;;;;;;;17.80;60.70;100997.08;2240705;79;51586;-78
2022/11/25 09:07:20;;;;;;;;;;;;;;;17.82;60.56;100999.56;2218223;79;51444;-78
2022/11/25 09:10:22;;;;;;;;;;;;;;;17.77;60.59;101004.55;2218190;79;51280;-78
2022/11/25 09:13:24;;;;;;;;;;;;;;;17.70;60.73;101001.73;2218104;79;49962;-78
2022/11/25 09:16:25;;;;;;;;;;;;;;;17.61;61.18;101008.91;2249122;78;51588;-78
2022/11/25 09:19:27;;;;;;;;;;;;;;;17.58;61.27;101008.42;2240974;79;51510;-78
2022/11/25 09:22:29;;;;;;;;;;;;;;;17.60;61.09;101009.09;2193424;79;52577;-78
2022/11/25 09:25:30;;;;;;;;;;;;;;;17.70;60.81;101012.92;2218019;79;51605;-78
2022/11/25 09:28:32;;;;;;;;;;;;;;;17.78;60.59;101006.25;2241091;78;51483;-78
2022/11/25 09:31:33;;;;;;;;;;;;;;;17.90;60.24;101008.09;2218778;79;51688;-77
2022/11/25 09:34:35;;;;;;;;;;;;;;;17.91;60.14;101001.23;2218642;79;52340;-76
2022/11/25 09:37:37;;;;;;;;;;;;;;;17.94;60.17;101000.06;2218707;79;51543;-78
2022/11/25 09:40:52;;;;;;;;;;;;;;;17.94;60.20;101002.23;2218613;79;51646;-77
2022/11/25 09:47:20;;;;;;;;;;;;;;;17.89;60.25;101003.23;2247842;77;22962;-78
2022/11/25 09:50:23;;;;;;;;;;;;;;;17.84;60.36;101001.58;2242152;79;50427;-77
2022/11/25 09:53:29;;;;;;;;;;;;;;;17.84;60.33;101001.58;2242549;79;50815;-77
2022/11/25 09:56:44;;;;;;;;;;;;;;;17.83;60.33;101003.42;2240697;78;51563;-75
2022/11/25 09:59:47;;;;;;;;;;;;;;;17.78;60.48;100993.69;2218403;79;49643;-76
2022/11/25 10:02:53;;;;;;;;;;;;;;;17.76;60.52;100994.87;2241066;79;50475;-77
2022/11/25 10:05:57;;;;;;;;;;;;;;;17.81;60.32;100997.39;2245752;78;50513;-78
2022/11/25 10:08:59;;;;;;;;;;;;;;;17.83;60.21;100990.55;2241326;79;51610;-76
2022/11/25 10:12:14;;;;;;;;;;;;;;;17.79;60.40;100978.46;2194010;79;51706;-76
2022/11/25 10:15:18;;;;;;;;;;;;;;;17.81;60.34;100977.83;2234989;77;50571;-76
2022/11/25 10:18:21;;;;;;;;;;;;;;;17.82;60.27;100978.15;2242935;79;51525;-76
2022/11/25 10:21:23;;;;;;;;;;;;;;;17.76;60.42;100979.64;2241163;79;50467;-77
2022/11/25 10:24:24;;;;;;;;;;;;;;;17.75;60.39;100975.30;2217396;79;51843;-76
2022/11/25 10:27:46;;;;;;;;;;;;;;;17.66;60.63;100980.83;2240531;79;50680;-76
2022/11/25 10:30:55;;;;;;;;;;;;;;;17.61;60.75;100999.55;2240815;79;51551;-76
2022/11/25 10:33:58;;;;;;;;;;;;;;;17.58;60.78;100993.70;2240548;79;50433;-76
2022/11/25 10:37:00;;;;;;;;;;;;;;;17.60;60.69;100995.21;2218047;79;51800;-76
2022/11/25 10:40:02;;;;;;;;;;;;;;;17.68;60.49;100992.20;2231581;79;51617;-76
2022/11/25 10:43:05;;;;;;;;;;;;;;;17.80;60.09;100982.83;2236769;79;51202;-77
2022/11/25 10:46:25;;;;;;;;;;;;;;;17.86;59.86;100986.70;2239755;79;51516;-76
2022/11/25 10:49:30;;;;;;;;;;;;;;;17.92;59.71;100986.83;2210477;79;51819;-76
2022/11/25 10:52:33;;;;;;;;;;;;;;;17.93;59.61;100984.98;2212576;80;51598;-76
2022/11/25 10:55:35;;;;;;;;;;;;;;;17.92;59.60;100988.17;2223531;79;51527;-77
2022/11/25 10:58:37;;;;;;;;;;;;;;;17.88;59.71;100992.21;2223689;80;50710;-77
2022/11/25 11:01:38;;;;;;;;;;;;;;;17.84;59.78;100990.36;2212269;80;50170;-76
2022/11/25 11:04:50;;;;;;;;;;;;;;;17.83;59.77;101003.93;2223358;80;50441;-76
2022/11/25 11:08:10;;;;;;;;;;;;;;;17.81;59.86;101003.25;2170253;79;50507;-76
2022/11/25 11:11:16;;;;;;;;;;;;;;;17.69;60.25;101008.58;2247440;79;51507;-77
2022/11/25 11:14:21;;;;;;;;;;;;;;;17.66;60.34;101002.23;2214195;79;50150;-76
2022/11/25 11:17:24;;;;;;;;;;;;;;;17.72;60.15;100996.20;2236048;79;50508;-78
2022/11/25 11:20:29;;;;;;;;;;;;;;;17.84;59.79;100994.88;2241100;79;50463;-76
2022/11/25 11:23:31;;;;;;;;;;;;;;;17.91;59.58;100995.88;2240705;79;50346;-76
2022/11/25 11:26:33;;;;;;;;;;;;;;;17.97;59.37;100991.68;2218165;79;50121;-77
2022/11/25 11:29:35;;;;;;;;;;;;;;;17.99;59.25;100987.83;2218115;79;51663;-77
2022/11/25 11:32:36;;;;;;;;;;;;;;;17.98;59.31;100997.36;2216254;79;51554;-76
2022/11/25 11:35:39;;;;;;;;;;;;;;;17.85;59.65;100988.51;2236545;79;51486;-75
2022/11/25 11:38:43;;;;;;;;;;;;;;;17.89;59.79;100989.86;2213226;79;51793;-76
2022/11/25 11:41:52;;;;;;;;;;;;;;;17.86;60.23;100984.02;2237104;79;50806;-76
2022/11/25 11:45:01;;;;;;;;;;;;;;;17.84;60.53;100987.68;2240987;79;51561;-76
2022/11/25 11:48:21;;;;;;;;;;;;;;;17.78;62.22;100991.02;2249737;78;51548;-75
2022/11/25 11:51:24;;;;;;;;;;;;;;;17.78;60.92;100982.16;2218815;79;49665;-76
2022/11/25 11:54:35;;;;;;;;;;;;;;;17.81;61.76;100980.50;2240800;79;51566;-76
2022/11/25 11:57:55;;;;;;;;;;;;;;;17.83;62.29;100979.84;2241238;79;50353;-75
2022/11/25 12:01:01;;;;;;;;;;;;;;;17.80;61.74;100981.02;2240790;78;51596;-75
2022/11/25 12:04:05;;;;;;;;;;;;;;;17.82;61.87;100984.84;2240542;79;50456;-76
2022/11/25 12:07:17;;;;;;;;;;;;;;;17.82;61.93;100978.15;2235731;79;50331;-76
2022/11/25 12:10:38;;;;;;;;;;;;;;;17.84;61.36;100976.14;2238002;79;51465;-77
2022/11/25 12:13:44;;;;;;;;;;;;;;;17.77;62.31;100972.44;2240720;79;51672;-76
2022/11/25 12:16:57;;;;;;;;;;;;;;;17.69;62.81;100967.10;2223774;78;52462;-77
2022/11/25 12:20:00;;;;;;;;;;;;;;;17.64;62.80;100964.92;2265288;77;50447;-76
2022/11/25 12:23:03;;;;;;;;;;;;;;;17.61;62.89;100968.77;2265772;78;50341;-76
2022/11/25 12:26:06;;;;;;;;;;;;;;;17.60;62.89;100963.61;2265583;77;50479;-77
2022/11/25 12:29:12;;;;;;;;;;;;;;;17.60;62.71;100958.26;2231692;78;51752;-75
2022/11/25 12:32:32;;;;;;;;;;;;;;;17.61;62.64;100957.24;2264954;78;50825;-75
2022/11/25 12:35:41;;;;;;;;;;;;;;;17.62;62.32;100966.45;2249869;78;50334;-76
2022/11/25 12:38:47;;;;;;;;;;;;;;;17.63;62.26;100962.76;2217247;79;51804;-76
2022/11/25 12:42:03;;;;;;;;;;;;;;;17.60;62.16;100959.09;2216040;79;51069;-76
2022/11/25 12:45:19;;;;;;;;;;;;;;;17.57;62.12;100959.44;2234797;79;50714;-76
2022/11/25 12:48:20;;;;;;;;;;;;;;;17.52;62.23;100956.42;2241095;77;51460;-75
2022/11/25 12:51:40;;;;;;;;;;;;;;;17.51;62.28;100960.09;2240899;78;50271;-75
2022/11/25 12:54:43;;;;;;;;;;;;;;;17.50;62.19;100963.78;2217877;79;51291;-74
2022/11/25 12:57:46;;;;;;;;;;;;;;;17.51;62.19;100969.95;2241287;77;50733;-76
2022/11/25 13:00:53;;;;;;;;;;;;;;;17.51;61.96;100970.79;2249140;78;50813;-74
2022/11/25 13:04:02;;;;;;;;;;;;;;;17.60;61.66;100965.78;2240513;79;50721;-74
2022/11/25 13:07:05;;;;;;;;;;;;;;;17.79;61.04;100963.74;2217248;79;50136;-74
2022/11/25 13:10:20;;;;;;;;;;;;;;;17.84;60.80;100962.25;2240615;79;50734;-75
2022/11/25 13:13:30;;;;;;;;;;;;;;;17.86;60.64;100960.75;2240654;79;50833;-74
2022/11/25 13:16:31;;;;;;;;;;;;;;;17.85;60.62;100959.06;2240764;79;50344;-75
2022/11/25 13:19:35;;;;;;;;;;;;;;;17.79;60.73;100965.08;2218179;79;50119;-76
2022/11/25 13:22:36;;;;;;;;;;;;;;;17.79;60.72;100971.77;2240869;79;22724;-75
2022/11/25 13:25:39;;;;;;;;;;;;;;;17.71;61.23;100973.13;2232986;79;51568;-72
2022/11/25 13:28:41;;;;;;;;;;;;;;;17.62;61.67;100987.86;2239771;79;50459;-73
2022/11/25 13:31:56;;;;;;;;;;;;;;;17.56;61.71;100980.48;2218160;79;51214;-74
2022/11/25 13:35:16;;;;;;;;;;;;;;;17.54;61.72;100989.17;2240978;79;51670;-74
2022/11/25 13:38:31;;;;;;;;;;;;;;;17.56;61.59;100989.85;2249461;78;50326;-75
2022/11/25 13:41:37;;;;;;;;;;;;;;;17.59;61.62;100994.86;2241120;79;50701;-73
2022/11/25 13:44:52;;;;;;;;;;;;;;;17.61;61.60;100998.20;2217925;79;50989;-74
2022/11/25 13:47:53;;;;;;;;;;;;;;;17.62;61.50;100995.89;2270001;77;50444;-74
2022/11/25 13:51:09;;;;;;;;;;;;;;;17.66;61.46;101002.23;2218646;79;49246;-74
2022/11/25 13:54:12;;;;;;;;;;;;;;;17.70;61.23;101006.23;2178747;79;52604;-75
2022/11/25 13:57:15;;;;;;;;;;;;;;;17.81;60.84;101009.44;2156026;81;51006;-75
2022/11/25 14:00:18;;;;;;;;;;;;;;;17.79;60.70;100999.40;2179061;81;51867;-75
2022/11/25 14:03:22;;;;;;;;;;;;;;;17.75;60.79;101003.88;2178771;81;51351;-75
2022/11/25 14:06:40;;;;;;;;;;;;;;;17.72;60.81;101005.56;2190822;79;51558;-75
2022/11/25 14:09:58;;;;;;;;;;;;;;;17.59;61.20;101012.25;2191176;81;51838;-73
2022/11/25 14:13:07;;;;;;;;;;;;;;;17.55;61.30;101014.95;2199067;81;51656;-76
2022/11/25 14:16:26;;;;;;;;;;;;;;;17.63;61.06;101010.09;2198998;81;50802;-75
2022/11/25 14:19:29;;;;;;;;;;;;;;;17.76;61.02;101008.25;2199199;81;51561;-74
2022/11/25 14:22:41;;;;;;;;;;;;;;;17.76;61.42;101009.59;2194978;81;51546;-75
2022/11/25 14:25:47;;;;;;;;;;;;;;;17.82;61.43;101014.28;2184376;81;51641;-75
2022/11/25 14:29:00;;;;;;;;;;;;;;;17.81;61.70;101020.15;2183350;80;51670;-74
2022/11/25 14:32:03;;;;;;;;;;;;;;;17.82;61.98;101022.31;2216674;80;50405;-75
2022/11/25 14:35:08;;;;;;;;;;;;;;;17.76;62.27;101025.64;2203155;80;52493;-75
2022/11/25 14:38:12;;;;;;;;;;;;;;;17.71;62.76;101027.98;2233926;78;51599;-76
2022/11/25 14:41:15;;;;;;;;;;;;;;;17.74;62.57;101028.98;2235620;79;51696;-74
2022/11/25 14:44:20;;;;;;;;;;;;;;;17.63;63.14;101029.66;2236076;77;51627;-73
2022/11/25 14:47:22;;;;;;;;;;;;;;;17.59;63.30;101045.70;2236078;79;22932;-73
2022/11/25 14:50:24;;;;;;;;;;;;;;;17.51;63.54;101041.69;2239327;78;50357;-74
2022/11/25 14:53:25;;;;;;;;;;;;;;;17.52;63.77;101048.73;2232193;78;50453;-74
2022/11/25 14:56:29;;;;;;;;;;;;;;;17.60;63.96;101052.74;2180590;81;50416;-73
2022/11/25 14:59:30;;;;;;;;;;;;;;;17.60;63.74;101050.58;2222314;79;50374;-73
2022/11/25 15:02:33;;;;;;;;;;;;;;;17.54;63.69;101060.58;2240772;79;50785;-74
2022/11/25 15:05:36;;;;;;;;;;;;;;;17.51;63.62;101060.41;2240505;79;51539;-73
2022/11/25 15:08:44;;;;;;;;;;;;;;;17.49;63.75;101061.58;2243548;78;50491;-74
2022/11/25 15:11:46;;;;;;;;;;;;;;;17.50;63.74;101057.92;2198678;80;52236;-73
2022/11/25 15:14:49;;;;;;;;;;;;;;;17.50;64.08;101057.42;2199845;81;50789;-75
2022/11/25 15:17:53;;;;;;;;;;;;;;;17.50;64.21;101068.12;2212350;80;50364;-76
2022/11/25 15:20:58;;;;;;;;;;;;;;;17.48;64.42;101062.09;2217115;79;22321;-75
2022/11/25 15:23:59;;;;;;;;;;;;;;;17.52;64.65;101068.80;2216644;80;50837;-76
2022/11/25 15:27:01;;;;;;;;;;;;;;;17.66;63.81;101067.80;2216914;80;50513;-76
2022/11/25 15:30:04;;;;;;;;;;;;;;;17.71;63.42;101078.33;2216929;80;50336;-76
2022/11/25 15:33:08;;;;;;;;;;;;;;;17.72;63.54;101075.14;2199791;80;52883;-75
2022/11/25 15:36:09;;;;;;;;;;;;;;;17.79;63.80;101077.02;2210606;78;52973;-75
2022/11/25 15:39:16;;;;;;;;;;;;;;;17.89;63.72;101078.20;2247255;78;51540;-75
2022/11/25 15:42:22;;;;;;;;;;;;;;;17.89;63.51;101070.17;2241049;79;51595;-76
2022/11/25 15:45:23;;;;;;;;;;;;;;;17.83;63.81;101077.55;2240609;79;50357;-76
2022/11/25 15:48:26;;;;;;;;;;;;;;;17.90;63.79;101077.69;2218697;79;51207;-76
2022/11/25 15:51:30;;;;;;;;;;;;;;;17.98;63.61;101077.20;2240769;79;50314;-75